createdAt,value
2018-05-03T00:02:25.523Z,9.70
2018-05-03T00:04:54.778Z,9.70
2018-05-03T00:07:24.078Z,9.80
2018-05-03T00:09:53.349Z,9.80
2018-05-03T00:12:22.622Z,9.80
2018-05-03T00:14:51.876Z,9.80
2018-05-03T00:17:21.144Z,9.90
2018-05-03T00:19:51.168Z,9.80
2018-05-03T00:22:21.271Z,9.90
2018-05-03T00:24:50.534Z,9.90
2018-05-03T00:27:19.822Z,9.90
2018-05-03T00:29:49.084Z,9.90
2018-05-03T00:32:18.354Z,9.90
2018-05-03T00:34:49.064Z,10.00
2018-05-03T00:37:18.314Z,10.00
2018-05-03T00:39:47.574Z,10.10
2018-05-03T00:42:16.848Z,10.10
2018-05-03T00:44:46.125Z,10.10
2018-05-03T00:47:15.377Z,10.20
2018-05-03T00:49:44.659Z,10.20
2018-05-03T00:52:13.947Z,10.30
2018-05-03T00:54:50.086Z,10.20
2018-05-03T00:57:19.343Z,10.30
2018-05-03T00:59:49.398Z,10.40
2018-05-03T01:02:18.707Z,10.30
2018-05-03T01:04:48.006Z,10.40
2018-05-03T01:07:17.299Z,10.40
2018-05-03T01:09:46.564Z,10.30
2018-05-03T01:12:15.937Z,10.30
2018-05-03T01:14:45.305Z,10.30
2018-05-03T01:17:15.402Z,10.40
2018-05-03T01:19:44.690Z,10.40
2018-05-03T01:22:14.131Z,10.50
2018-05-03T01:24:43.483Z,10.50
2018-05-03T01:27:12.738Z,10.50
2018-05-03T01:29:42.082Z,10.50
2018-05-03T01:32:11.367Z,10.50
2018-05-03T01:34:40.632Z,10.50
2018-05-03T01:37:09.895Z,10.50
2018-05-03T01:39:39.159Z,10.50
2018-05-03T01:42:08.411Z,10.40
2018-05-03T01:44:37.704Z,10.30
2018-05-03T01:47:07.725Z,10.30
2018-05-03T01:49:37.186Z,10.30
2018-05-03T01:52:06.465Z,10.30
2018-05-03T01:54:35.757Z,10.20
2018-05-03T01:57:05.038Z,10.10
2018-05-03T01:59:35.113Z,10.10
2018-05-03T02:02:04.390Z,10.10
2018-05-03T02:04:33.641Z,10.00
2018-05-03T02:07:03.676Z,10.00
2018-05-03T02:09:33.704Z,9.90
2018-05-03T02:12:02.957Z,9.90
2018-05-03T02:14:32.215Z,9.90
2018-05-03T02:17:01.464Z,9.90
2018-05-03T02:19:31.497Z,9.80
2018-05-03T02:22:00.743Z,9.80
2018-05-03T02:24:29.998Z,9.80
2018-05-03T02:27:00.055Z,9.60
2018-05-03T02:29:29.312Z,9.60
2018-05-03T02:31:59.363Z,9.60
2018-05-03T02:34:28.662Z,9.60
2018-05-03T02:36:58.041Z,9.50
2018-05-03T02:39:28.146Z,9.60
2018-05-03T02:41:57.384Z,9.50
2018-05-03T02:44:26.640Z,9.60
2018-05-03T02:46:55.909Z,9.60
2018-05-03T02:49:25.161Z,9.60
2018-05-03T02:51:55.185Z,9.30
2018-05-03T02:54:24.498Z,9.30
2018-05-03T02:56:53.850Z,9.40
2018-05-03T02:59:41.690Z,9.30
2018-05-03T03:02:16.328Z,9.30
2018-05-03T03:05:09.115Z,9.40
2018-05-03T03:11:29.696Z,9.50
2018-05-03T03:14:17.124Z,9.40
2018-05-03T03:17:09.919Z,9.50
2018-05-03T03:20:07.183Z,9.50
2018-05-03T03:26:38.041Z,9.70
2018-05-03T03:29:30.735Z,9.70
2018-05-03T03:32:17.973Z,9.70
2018-05-03T03:34:48.738Z,9.70
2018-05-03T03:37:35.658Z,9.70
2018-05-03T03:40:25.448Z,9.60
2018-05-03T03:46:01.152Z,9.80
2018-05-03T03:48:30.419Z,9.80
2018-05-03T03:50:59.728Z,9.90
2018-05-03T03:53:29.022Z,10.00
2018-05-03T03:55:58.264Z,10.00
2018-05-03T03:58:28.280Z,10.10
2018-05-03T04:00:58.336Z,10.20
2018-05-03T04:03:27.600Z,10.20
2018-05-03T04:05:57.420Z,10.30
2018-05-03T04:08:26.901Z,10.50
2018-05-03T04:10:56.146Z,10.50
2018-05-03T04:13:25.485Z,10.60
2018-05-03T04:15:54.784Z,10.80
2018-05-03T04:18:41.999Z,10.80
2018-05-03T04:21:29.080Z,11.00
2018-05-03T04:24:17.250Z,11.10
2018-05-03T04:26:46.555Z,11.20
2018-05-03T04:29:15.814Z,11.20
2018-05-03T04:31:45.906Z,11.30
2018-05-03T04:34:15.297Z,11.30
2018-05-03T04:36:44.645Z,11.40
2018-05-03T04:39:14.056Z,11.40
2018-05-03T04:41:44.893Z,11.40
2018-05-03T04:44:14.175Z,11.40
2018-05-03T04:46:44.234Z,11.50
2018-05-03T04:49:13.507Z,11.50
2018-05-03T04:51:43.517Z,11.60
2018-05-03T04:54:12.925Z,11.60
2018-05-03T04:56:42.143Z,11.60
2018-05-03T04:59:11.430Z,11.60
2018-05-03T05:01:40.699Z,11.60
2018-05-03T05:04:10.778Z,11.70
2018-05-03T05:06:40.038Z,11.70
2018-05-03T05:09:10.065Z,11.80
2018-05-03T05:11:39.368Z,11.80
2018-05-03T05:14:08.671Z,11.80
2018-05-03T05:16:37.988Z,11.90
2018-05-03T05:19:07.248Z,12.00
2018-05-03T05:21:37.806Z,12.20
2018-05-03T05:24:07.082Z,12.20
2018-05-03T05:26:37.164Z,12.40
2018-05-03T05:29:06.424Z,12.40
2018-05-03T05:31:35.721Z,12.60
2018-05-03T05:34:04.990Z,12.80
2018-05-03T05:36:35.040Z,12.70
2018-05-03T05:39:04.429Z,12.70
2018-05-03T05:41:34.442Z,12.90
2018-05-03T05:44:06.301Z,13.00
2018-05-03T05:46:35.517Z,13.00
2018-05-03T05:49:04.965Z,13.40
2018-05-03T05:51:34.281Z,14.80
2018-05-03T05:54:04.342Z,17.40
2018-05-03T05:56:33.670Z,17.40
2018-05-03T05:59:03.651Z,18.50
2018-05-03T06:01:32.947Z,18.50
2018-05-03T06:04:03.024Z,20.60
2018-05-03T06:06:32.308Z,20.60
2018-05-03T06:09:01.560Z,20.80
2018-05-03T06:11:30.835Z,21.40
2018-05-03T06:14:00.862Z,22.00
2018-05-03T06:16:30.888Z,22.60
2018-05-03T06:19:00.940Z,22.30
2018-05-03T06:21:30.214Z,22.20
2018-05-03T06:23:59.479Z,21.20
2018-05-03T06:26:28.776Z,19.30
2018-05-03T06:28:58.835Z,16.80
2018-05-03T06:31:28.130Z,16.80
2018-05-03T06:33:58.167Z,18.10
2018-05-03T06:36:27.431Z,18.10
2018-05-03T06:38:57.493Z,19.40
2018-05-03T06:41:26.781Z,19.40
2018-05-03T06:43:56.074Z,20.20
2018-05-03T06:46:25.372Z,21.40
2018-05-03T06:48:54.651Z,22.00
2018-05-03T06:51:24.755Z,22.20
2018-05-03T06:53:53.937Z,22.20
2018-05-03T06:56:23.213Z,22.60
2018-05-03T06:58:52.474Z,24.20
2018-05-03T07:01:22.533Z,22.30
2018-05-03T07:03:51.827Z,22.30
2018-05-03T07:06:21.069Z,23.30
2018-05-03T07:08:51.855Z,25.30
2018-05-03T07:11:21.125Z,25.30
2018-05-03T07:13:51.147Z,23.20
2018-05-03T07:16:21.228Z,20.60
2018-05-03T07:18:50.573Z,20.50
2018-05-03T07:21:19.804Z,19.50
2018-05-03T07:23:49.161Z,19.00
2018-05-03T07:26:18.393Z,21.00
2018-05-03T07:28:47.691Z,23.50
2018-05-03T07:31:17.072Z,24.80
2018-05-03T07:33:46.474Z,25.80
2018-05-03T07:36:17.408Z,25.90
2018-05-03T07:38:46.692Z,25.80
2018-05-03T07:41:16.057Z,26.40
2018-05-03T07:43:45.350Z,26.00
2018-05-03T07:46:14.639Z,25.50
2018-05-03T07:48:43.920Z,25.80
2018-05-03T07:51:13.960Z,27.30
2018-05-03T07:53:43.291Z,27.20
2018-05-03T07:56:12.531Z,27.40
2018-05-03T07:58:41.813Z,27.30
2018-05-03T08:01:11.074Z,27.60
2018-05-03T08:03:40.445Z,27.50
2018-05-03T08:06:09.830Z,27.10
2018-05-03T08:08:39.877Z,23.80
2018-05-03T08:11:09.145Z,23.70
2018-05-03T08:13:39.202Z,21.80
2018-05-03T08:16:08.456Z,21.80
2018-05-03T08:18:38.508Z,19.80
2018-05-03T08:21:07.895Z,19.70
2018-05-03T08:23:41.291Z,18.60
2018-05-03T08:26:10.561Z,18.60
2018-05-03T08:28:40.615Z,18.10
2018-05-03T08:31:10.637Z,18.10
2018-05-03T08:33:39.938Z,18.10
2018-05-03T08:36:09.261Z,18.20
2018-05-03T08:38:38.520Z,18.40
2018-05-03T08:41:14.097Z,18.60
2018-05-03T08:43:43.440Z,18.50
2018-05-03T08:46:12.710Z,18.50
2018-05-03T08:48:42.004Z,18.50
2018-05-03T08:51:11.255Z,18.80
2018-05-03T08:53:41.301Z,19.70
2018-05-03T08:56:11.515Z,20.10
2018-05-03T08:58:40.785Z,20.00
2018-05-03T09:01:10.054Z,21.20
2018-05-03T09:03:39.339Z,22.50
2018-05-03T09:06:08.602Z,24.00
2018-05-03T09:08:38.634Z,27.50
2018-05-03T09:11:07.901Z,27.40
2018-05-03T09:13:37.220Z,27.70
2018-05-03T09:16:07.265Z,29.10
2018-05-03T09:18:36.654Z,29.00
2018-05-03T09:21:05.996Z,29.70
2018-05-03T09:23:35.257Z,30.70
2018-05-03T09:26:04.545Z,30.90
2018-05-03T09:28:34.569Z,29.90
2018-05-03T09:31:04.606Z,28.90
2018-05-03T09:33:33.998Z,28.80
2018-05-03T09:36:03.288Z,29.90
2018-05-03T09:38:32.598Z,30.50
2018-05-03T09:41:02.602Z,30.40
2018-05-03T09:43:32.669Z,31.90
2018-05-03T09:46:01.949Z,31.80
2018-05-03T09:48:31.250Z,32.90
2018-05-03T09:51:00.525Z,32.70
2018-05-03T09:53:29.798Z,32.50
2018-05-03T09:55:59.070Z,30.80
2018-05-03T09:58:28.425Z,29.90
2018-05-03T10:00:57.755Z,30.70
2018-05-03T10:03:30.886Z,32.00
2018-05-03T10:06:00.150Z,31.10
2018-05-03T10:08:29.420Z,30.50
2018-05-03T10:10:58.684Z,30.30
2018-05-03T10:13:27.943Z,29.90
2018-05-03T10:15:57.231Z,29.60
2018-05-03T10:18:26.485Z,30.90
2018-05-03T10:20:56.553Z,29.90
2018-05-03T10:23:25.810Z,29.90
2018-05-03T10:25:55.061Z,29.40
2018-05-03T10:28:24.362Z,28.50
2018-05-03T10:30:53.631Z,29.50
2018-05-03T10:33:23.689Z,29.10
2018-05-03T10:35:53.126Z,29.00
2018-05-03T10:38:22.397Z,28.80
2018-05-03T10:40:51.701Z,28.30
2018-05-03T10:43:20.983Z,29.20
2018-05-03T10:45:50.265Z,29.50
2018-05-03T10:48:19.529Z,29.90
2018-05-03T10:50:48.802Z,30.30
2018-05-03T10:53:18.089Z,29.70
2018-05-03T10:55:47.352Z,30.40
2018-05-03T10:58:17.372Z,29.40
2018-05-03T11:00:46.623Z,29.40
2018-05-03T11:03:15.890Z,29.00
2018-05-03T11:05:45.146Z,29.20
2018-05-03T11:08:14.424Z,27.40
2018-05-03T11:10:43.729Z,25.30
2018-05-03T11:13:13.018Z,24.10
2018-05-03T11:15:42.273Z,23.90
2018-05-03T11:18:11.587Z,24.60
2018-05-03T11:20:40.842Z,25.60
2018-05-03T11:23:10.126Z,26.00
2018-05-03T11:25:39.380Z,24.70
2018-05-03T11:28:08.642Z,23.90
2018-05-03T11:30:37.904Z,23.30
2018-05-03T11:33:07.168Z,23.50
2018-05-03T11:35:36.647Z,23.10
2018-05-03T11:38:07.395Z,22.60
2018-05-03T11:40:37.590Z,22.30
2018-05-03T11:43:08.382Z,22.20
2018-05-03T11:45:37.656Z,22.20
2018-05-03T11:48:07.674Z,22.50
2018-05-03T11:50:36.949Z,22.50
2018-05-03T11:53:06.222Z,22.30
2018-05-03T11:55:35.479Z,22.50
2018-05-03T11:58:04.762Z,22.60
2018-05-03T12:00:34.050Z,23.10
2018-05-03T12:03:03.342Z,23.30
2018-05-03T12:05:34.112Z,23.10
2018-05-03T12:08:04.161Z,23.00
2018-05-03T12:10:33.482Z,23.10
2018-05-03T12:13:02.755Z,22.60
2018-05-03T12:15:32.001Z,22.70
2018-05-03T12:18:01.283Z,22.80
2018-05-03T12:20:30.579Z,22.60
2018-05-03T12:22:59.961Z,22.70
2018-05-03T12:25:29.237Z,22.70
2018-05-03T12:27:58.565Z,22.70
2018-05-03T12:30:27.916Z,22.40
2018-05-03T12:32:57.162Z,22.50
2018-05-03T12:35:26.433Z,22.30
2018-05-03T12:37:56.450Z,21.70
2018-05-03T12:40:25.717Z,21.70
2018-05-03T12:42:55.752Z,21.80
2018-05-03T12:45:25.797Z,22.10
2018-05-03T12:47:55.108Z,22.10
2018-05-03T12:50:24.436Z,22.60
2018-05-03T12:52:53.700Z,22.80
2018-05-03T12:55:23.015Z,22.60
2018-05-03T12:57:52.305Z,22.40
2018-05-03T13:00:21.595Z,22.20
2018-05-03T13:02:50.893Z,22.50
2018-05-03T13:05:20.163Z,22.50
2018-05-03T13:07:49.409Z,22.80
2018-05-03T13:10:18.905Z,22.50
2018-05-03T13:12:48.174Z,22.20
2018-05-03T13:15:18.313Z,21.80
2018-05-03T13:17:49.694Z,21.60
2018-05-03T13:20:19.079Z,21.60
2018-05-03T13:22:48.365Z,21.60
2018-05-03T13:25:17.635Z,21.90
2018-05-03T13:27:47.664Z,21.70
2018-05-03T13:30:16.941Z,21.70
2018-05-03T13:32:46.192Z,22.00
2018-05-03T13:35:15.620Z,22.10
2018-05-03T13:37:44.874Z,22.00
2018-05-03T13:40:15.015Z,21.70
2018-05-03T13:42:44.312Z,21.70
2018-05-03T13:45:13.591Z,21.30
2018-05-03T13:47:44.468Z,21.70
2018-05-03T13:50:13.654Z,21.70
2018-05-03T13:52:42.906Z,21.80
2018-05-03T13:55:12.169Z,21.90
2018-05-03T13:57:42.237Z,21.80
2018-05-03T14:00:11.508Z,21.90
2018-05-03T14:02:40.790Z,21.80
2018-05-03T14:05:10.117Z,21.70
2018-05-03T14:07:39.343Z,21.60
2018-05-03T14:10:09.438Z,21.30
2018-05-03T14:12:38.761Z,21.20
2018-05-03T14:15:08.833Z,21.10
2018-05-03T14:17:38.120Z,21.10
2018-05-03T14:20:07.390Z,21.30
2018-05-03T14:22:37.421Z,21.30
2018-05-03T14:25:06.690Z,21.30
2018-05-03T14:27:36.548Z,21.40
2018-05-03T14:30:05.864Z,21.10
2018-05-03T14:32:35.131Z,21.10
2018-05-03T14:35:05.174Z,21.20
2018-05-03T14:37:34.470Z,21.20
2018-05-03T14:40:03.736Z,21.40
2018-05-03T14:42:32.999Z,21.50
2018-05-03T14:45:02.341Z,21.50
2018-05-03T14:47:31.620Z,21.50
2018-05-03T14:50:00.913Z,21.40
2018-05-03T14:52:30.190Z,21.40
2018-05-03T14:54:59.458Z,21.50
2018-05-03T14:57:28.722Z,21.50
2018-05-03T14:59:58.925Z,21.70
2018-05-03T15:02:28.226Z,21.70
2018-05-03T15:04:57.482Z,21.70
2018-05-03T15:07:26.764Z,21.80
2018-05-03T15:09:56.796Z,21.30
2018-05-03T15:12:26.091Z,21.30
2018-05-03T15:14:56.173Z,21.70
2018-05-03T15:17:25.471Z,21.70
2018-05-03T15:19:54.753Z,22.20
2018-05-03T15:22:24.022Z,22.20
2018-05-03T15:24:53.329Z,21.90
2018-05-03T15:27:22.595Z,22.00
2018-05-03T15:29:51.884Z,22.10
2018-05-03T15:32:21.932Z,22.30
2018-05-03T15:34:51.949Z,22.10
2018-05-03T15:37:21.243Z,22.10
2018-05-03T15:39:50.488Z,22.10
2018-05-03T15:42:19.760Z,22.10
2018-05-03T15:44:49.033Z,22.30
2018-05-03T15:47:19.071Z,22.50
2018-05-03T15:49:48.373Z,22.50
2018-05-03T15:52:17.649Z,22.30
2018-05-03T15:54:46.932Z,22.20
2018-05-03T15:57:16.220Z,22.10
2018-05-03T15:59:45.491Z,22.20
2018-05-03T16:02:14.784Z,22.00
2018-05-03T16:04:44.080Z,22.10
2018-05-03T16:07:13.373Z,22.10
2018-05-03T16:09:42.677Z,22.10
2018-05-03T16:12:12.079Z,22.20
2018-05-03T16:14:42.091Z,22.00
2018-05-03T16:17:11.380Z,22.00
2018-05-03T16:19:40.680Z,21.90
2018-05-03T16:22:09.999Z,22.00
2018-05-03T16:24:39.293Z,22.10
2018-05-03T16:27:08.558Z,21.90
2018-05-03T16:29:38.584Z,21.90
2018-05-03T16:32:08.604Z,21.80
2018-05-03T16:34:38.737Z,21.90
2018-05-03T16:37:07.995Z,21.90
2018-05-03T16:39:37.341Z,21.90
2018-05-03T16:42:06.774Z,22.00
2018-05-03T16:44:36.034Z,21.90
2018-05-03T16:47:05.276Z,21.90
2018-05-03T16:49:34.632Z,21.70
2018-05-03T16:52:04.705Z,21.30
2018-05-03T16:54:34.013Z,21.30
2018-05-03T16:57:03.331Z,21.10
2018-05-03T16:59:32.758Z,20.80
2018-05-03T17:02:02.081Z,20.60
2018-05-03T17:04:31.439Z,20.40
2018-05-03T17:07:01.503Z,20.00
2018-05-03T17:09:30.822Z,20.00
2018-05-03T17:12:00.127Z,19.90
2018-05-03T17:14:29.386Z,19.70
2018-05-03T17:16:58.722Z,19.50
2018-05-03T17:19:29.716Z,19.30
2018-05-03T17:22:00.489Z,19.10
2018-05-03T17:24:29.775Z,19.10
2018-05-03T17:26:59.146Z,18.90
2018-05-03T17:29:29.218Z,18.60
2018-05-03T17:31:58.475Z,18.60
2018-05-03T17:34:27.752Z,18.50
2018-05-03T17:36:57.026Z,18.40
2018-05-03T17:39:26.317Z,18.10
2018-05-03T17:41:55.637Z,18.00
2018-05-03T17:44:24.942Z,18.00
2018-05-03T17:46:54.568Z,17.80
2018-05-03T17:49:24.172Z,17.70
2018-05-03T17:51:53.457Z,17.40
2018-05-03T17:54:23.002Z,17.30
2018-05-03T17:56:54.095Z,17.10
2018-05-03T17:59:23.406Z,17.00
2018-05-03T18:01:52.667Z,16.90
2018-05-03T18:04:22.050Z,16.80
2018-05-03T18:06:52.231Z,16.60
2018-05-03T18:09:21.577Z,16.60
2018-05-03T18:11:51.079Z,16.50
2018-05-03T18:14:22.105Z,16.30
2018-05-03T18:16:53.552Z,16.30
2018-05-03T18:19:22.809Z,16.30
2018-05-03T18:21:52.276Z,16.20
2018-05-03T18:24:21.605Z,16.10
2018-05-03T18:26:51.032Z,16.00
2018-05-03T18:29:20.391Z,15.90
2018-05-03T18:31:49.716Z,15.80
2018-05-03T18:34:20.524Z,15.70
2018-05-03T18:36:49.991Z,15.70
2018-05-03T18:39:23.331Z,15.60
2018-05-03T18:41:52.879Z,15.50
2018-05-03T18:44:22.163Z,15.30
2018-05-03T18:46:51.465Z,15.20
2018-05-03T18:49:20.834Z,15.10
2018-05-03T18:51:50.156Z,14.90
2018-05-03T18:54:19.525Z,14.80
2018-05-03T18:56:48.747Z,14.80
2018-05-03T18:59:18.060Z,14.70
2018-05-03T19:01:47.587Z,14.60
2018-05-03T19:04:16.877Z,14.50
2018-05-03T19:06:46.171Z,14.40
2018-05-03T19:09:15.431Z,14.30
2018-05-03T19:11:45.787Z,14.00
2018-05-03T19:14:15.084Z,13.90
2018-05-03T19:16:44.415Z,14.00
2018-05-03T19:19:15.205Z,13.70
2018-05-03T19:21:44.480Z,13.70
2018-05-03T19:24:14.521Z,13.60
2018-05-03T19:26:43.842Z,13.60
2018-05-03T19:29:13.129Z,13.50
2018-05-03T19:31:42.757Z,13.40
2018-05-03T19:34:12.049Z,13.30
2018-05-03T19:36:41.332Z,13.20
2018-05-03T19:39:14.733Z,13.20
2018-05-03T19:41:44.781Z,13.10
2018-05-03T19:44:14.129Z,13.00
2018-05-03T19:46:43.324Z,12.90
2018-05-03T19:49:13.374Z,12.70
2018-05-03T19:51:46.524Z,12.70
2018-05-03T19:54:15.795Z,12.70
2018-05-03T19:56:45.081Z,12.50
2018-05-03T19:59:14.505Z,12.40
2018-05-03T20:01:43.773Z,12.40
2018-05-03T20:04:19.053Z,12.30
2018-05-03T20:06:48.337Z,12.20
2018-05-03T20:09:17.609Z,12.10
2018-05-03T20:11:46.905Z,12.00
2018-05-03T20:14:16.174Z,11.90
2018-05-03T20:16:46.225Z,11.80
2018-05-03T20:19:15.505Z,11.80
2018-05-03T20:21:45.532Z,11.70
2018-05-03T20:24:14.803Z,11.60
2018-05-03T20:26:44.876Z,11.60
2018-05-03T20:29:14.219Z,11.50
2018-05-03T20:31:43.544Z,11.50
2018-05-03T20:34:13.580Z,11.50
2018-05-03T20:36:42.966Z,11.50
2018-05-03T20:39:12.257Z,11.60
2018-05-03T20:41:41.531Z,11.70
2018-05-03T20:44:10.823Z,11.60
2018-05-03T20:46:40.092Z,11.70
2018-05-03T20:49:09.360Z,11.80
2018-05-03T20:51:39.409Z,11.90
2018-05-03T20:54:08.665Z,11.90
2018-05-03T20:56:42.618Z,12.10
2018-05-03T20:59:11.858Z,12.10
2018-05-03T21:01:45.608Z,12.20
2018-05-03T21:04:14.940Z,12.20
2018-05-03T21:06:44.216Z,12.30
2018-05-03T21:09:14.214Z,12.40
2018-05-03T21:11:43.560Z,12.50
2018-05-03T21:14:12.853Z,12.60
2018-05-03T21:16:42.125Z,12.60
2018-05-03T21:19:11.379Z,12.50
2018-05-03T21:21:40.845Z,12.60
2018-05-03T21:24:10.162Z,12.60
2018-05-03T21:26:39.415Z,12.60
2018-05-03T21:29:09.432Z,12.50
2018-05-03T21:31:39.448Z,12.50
2018-05-03T21:34:08.733Z,12.50
2018-05-03T21:36:38.968Z,12.50
2018-05-03T21:39:08.226Z,12.50
2018-05-03T21:41:37.573Z,12.40
2018-05-03T21:44:06.775Z,12.50
2018-05-03T21:46:36.041Z,12.40
2018-05-03T21:49:05.352Z,12.40
2018-05-03T21:51:34.601Z,12.40
2018-05-03T21:54:03.883Z,12.40
2018-05-03T21:56:33.149Z,12.40
2018-05-03T21:59:02.432Z,12.30
2018-05-03T22:01:31.758Z,12.30
2018-05-03T22:04:01.810Z,12.30
2018-05-03T22:06:31.066Z,12.20
2018-05-03T22:09:00.338Z,12.30
2018-05-03T22:11:29.624Z,12.20
2018-05-03T22:13:58.948Z,12.20
2018-05-03T22:16:28.188Z,12.10
2018-05-03T22:18:58.305Z,12.10
2018-05-03T22:21:28.354Z,12.10
2018-05-03T22:23:57.613Z,12.10
2018-05-03T22:26:27.647Z,12.00
2018-05-03T22:28:56.957Z,12.00
2018-05-03T22:31:26.225Z,12.00
2018-05-03T22:33:56.298Z,11.90
2018-05-03T22:36:25.970Z,11.90
2018-05-03T22:38:55.985Z,11.80
2018-05-03T22:41:25.857Z,11.80
2018-05-03T22:43:55.117Z,11.90
2018-05-03T22:46:28.667Z,11.80
2018-05-03T22:48:57.936Z,11.80
2018-05-03T22:51:27.185Z,11.70
2018-05-03T22:53:56.514Z,11.70
2018-05-03T22:56:25.774Z,11.70
2018-05-03T22:58:55.072Z,11.70
2018-05-03T23:01:25.849Z,11.60
2018-05-03T23:03:55.141Z,11.60
2018-05-03T23:06:24.466Z,11.70
2018-05-03T23:08:53.741Z,11.60
2018-05-03T23:11:23.010Z,11.60
2018-05-03T23:13:52.271Z,11.50
2018-05-03T23:16:21.535Z,11.50
2018-05-03T23:18:51.578Z,11.50
2018-05-03T23:21:20.926Z,11.50
2018-05-03T23:23:50.190Z,11.50
2018-05-03T23:26:19.447Z,11.50
2018-05-03T23:28:49.510Z,11.40
2018-05-03T23:31:18.739Z,11.40
2018-05-03T23:33:48.026Z,11.40
2018-05-03T23:36:17.321Z,11.40
2018-05-03T23:38:46.593Z,11.40
2018-05-03T23:41:15.925Z,11.40
2018-05-03T23:43:45.287Z,11.30
2018-05-03T23:46:14.576Z,11.30
2018-05-03T23:48:44.600Z,11.20
2018-05-03T23:51:14.776Z,11.30
2018-05-03T23:53:44.072Z,11.20
2018-05-03T23:56:13.341Z,11.30
2018-05-03T23:58:42.598Z,11.30
